sensor_id;sensor_type;location;lat;lon;timestamp;temperature;humidity
2012;DHT22;1009;51.436;6.972;2022-12-18T00:00:07;-1.70;99.90
2012;DHT22;1009;51.436;6.972;2022-12-18T00:02:34;-1.50;99.90
2012;DHT22;1009;51.436;6.972;2022-12-18T00:05:03;-1.50;99.90
2012;DHT22;1009;51.436;6.972;2022-12-18T00:07:29;-1.50;99.90
2012;DHT22;1009;51.436;6.972;2022-12-18T00:09:56;-1.60;99.90
2012;DHT22;1009;51.436;6.972;2022-12-18T00:12:23;-1.60;99.90
2012;DHT22;1009;51.436;6.972;2022-12-18T00:14:49;-1.50;99.90
2012;DHT22;1009;51.436;6.972;2022-12-18T00:17:17;-1.60;99.90
2012;DHT22;1009;51.436;6.972;2022-12-18T00:19:43;-1.70;99.90
2012;DHT22;1009;51.436;6.972;2022-12-18T00:22:11;-1.70;99.90
2012;DHT22;1009;51.436;6.972;2022-12-18T00:24:38;-1.70;99.90
2012;DHT22;1009;51.436;6.972;2022-12-18T00:27:05;-1.60;99.90
2012;DHT22;1009;51.436;6.972;2022-12-18T00:29:32;-1.50;99.90
2012;DHT22;1009;51.436;6.972;2022-12-18T00:31:58;-1.50;99.90
2012;DHT22;1009;51.436;6.972;2022-12-18T00:34:25;-1.40;99.90
2012;DHT22;1009;51.436;6.972;2022-12-18T00:36:52;-1.50;99.90
2012;DHT22;1009;51.436;6.972;2022-12-18T00:39:20;-1.40;99.90
2012;DHT22;1009;51.436;6.972;2022-12-18T00:41:47;-1.50;99.90
2012;DHT22;1009;51.436;6.972;2022-12-18T00:44:31;-1.60;99.90
2012;DHT22;1009;51.436;6.972;2022-12-18T00:46:58;-1.60;99.90
2012;DHT22;1009;51.436;6.972;2022-12-18T00:49:25;-1.60;99.90
2012;DHT22;1009;51.436;6.972;2022-12-18T00:51:52;-1.60;99.90
2012;DHT22;1009;51.436;6.972;2022-12-18T00:54:20;-1.60;99.90
2012;DHT22;1009;51.436;6.972;2022-12-18T00:56:46;-1.70;99.90
2012;DHT22;1009;51.436;6.972;2022-12-18T00:59:13;-1.70;99.90
2012;DHT22;1009;51.436;6.972;2022-12-18T01:01:40;-1.80;99.90
2012;DHT22;1009;51.436;6.972;2022-12-18T01:04:06;-1.80;99.90
2012;DHT22;1009;51.436;6.972;2022-12-18T01:06:33;-1.90;99.90
2012;DHT22;1009;51.436;6.972;2022-12-18T01:09:00;-1.90;99.90
2012;DHT22;1009;51.436;6.972;2022-12-18T01:11:28;-1.90;99.90
2012;DHT22;1009;51.436;6.972;2022-12-18T01:13:55;-1.90;99.90
2012;DHT22;1009;51.436;6.972;2022-12-18T01:16:22;-1.90;99.90
2012;DHT22;1009;51.436;6.972;2022-12-18T01:18:51;-2.00;99.90
2012;DHT22;1009;51.436;6.972;2022-12-18T01:21:18;-1.80;99.90
2012;DHT22;1009;51.436;6.972;2022-12-18T01:23:45;-1.80;99.90
2012;DHT22;1009;51.436;6.972;2022-12-18T01:26:15;-1.80;99.90
2012;DHT22;1009;51.436;6.972;2022-12-18T01:28:43;-1.90;99.90
2012;DHT22;1009;51.436;6.972;2022-12-18T01:31:16;-1.80;99.90
2012;DHT22;1009;51.436;6.972;2022-12-18T01:33:43;-1.80;99.90
2012;DHT22;1009;51.436;6.972;2022-12-18T01:36:15;-1.70;99.90
2012;DHT22;1009;51.436;6.972;2022-12-18T01:38:43;-1.60;99.90
2012;DHT22;1009;51.436;6.972;2022-12-18T01:41:09;-1.60;99.90
2012;DHT22;1009;51.436;6.972;2022-12-18T01:43:50;-1.70;99.90
2012;DHT22;1009;51.436;6.972;2022-12-18T01:46:20;-1.60;99.90
2012;DHT22;1009;51.436;6.972;2022-12-18T01:48:48;-1.50;99.90
2012;DHT22;1009;51.436;6.972;2022-12-18T01:51:17;-1.40;99.90
2012;DHT22;1009;51.436;6.972;2022-12-18T01:53:45;-1.30;99.90
2012;DHT22;1009;51.436;6.972;2022-12-18T01:56:13;-1.20;99.90
2012;DHT22;1009;51.436;6.972;2022-12-18T01:58:47;-1.10;99.90
2012;DHT22;1009;51.436;6.972;2022-12-18T02:01:15;-1.10;99.90
2012;DHT22;1009;51.436;6.972;2022-12-18T02:03:42;-1.00;99.90
2012;DHT22;1009;51.436;6.972;2022-12-18T02:06:14;-1.00;99.90
2012;DHT22;1009;51.436;6.972;2022-12-18T02:08:48;-0.90;99.90
2012;DHT22;1009;51.436;6.972;2022-12-18T02:11:23;-0.90;99.90
2012;DHT22;1009;51.436;6.972;2022-12-18T02:14:02;-0.80;99.90
2012;DHT22;1009;51.436;6.972;2022-12-18T02:16:34;-0.80;99.90
2012;DHT22;1009;51.436;6.972;2022-12-18T02:19:09;-0.80;99.90
2012;DHT22;1009;51.436;6.972;2022-12-18T02:21:48;-0.80;99.90
2012;DHT22;1009;51.436;6.972;2022-12-18T02:24:22;-1.00;99.90
2012;DHT22;1009;51.436;6.972;2022-12-18T02:26:56;-1.10;99.90
2012;DHT22;1009;51.436;6.972;2022-12-18T02:29:27;-1.10;99.90
2012;DHT22;1009;51.436;6.972;2022-12-18T02:31:58;-1.10;99.90
2012;DHT22;1009;51.436;6.972;2022-12-18T02:34:28;-1.10;99.90
2012;DHT22;1009;51.436;6.972;2022-12-18T02:36:56;-1.10;99.90
2012;DHT22;1009;51.436;6.972;2022-12-18T02:39:27;-1.00;99.90
2012;DHT22;1009;51.436;6.972;2022-12-18T02:41:56;-0.90;99.90
2012;DHT22;1009;51.436;6.972;2022-12-18T02:44:23;-0.90;99.90
2012;DHT22;1009;51.436;6.972;2022-12-18T02:46:51;-1.00;99.90
2012;DHT22;1009;51.436;6.972;2022-12-18T02:49:28;-1.00;99.90
2012;DHT22;1009;51.436;6.972;2022-12-18T02:52:02;-1.00;99.90
2012;DHT22;1009;51.436;6.972;2022-12-18T02:54:39;-1.00;99.90
2012;DHT22;1009;51.436;6.972;2022-12-18T02:57:15;-1.00;99.90
2012;DHT22;1009;51.436;6.972;2022-12-18T02:59:48;-1.00;99.90
2012;DHT22;1009;51.436;6.972;2022-12-18T03:02:21;-0.90;99.90
2012;DHT22;1009;51.436;6.972;2022-12-18T03:04:55;-0.90;99.90
2012;DHT22;1009;51.436;6.972;2022-12-18T03:07:34;-0.80;99.90
2012;DHT22;1009;51.436;6.972;2022-12-18T03:10:02;-0.70;99.90
2012;DHT22;1009;51.436;6.972;2022-12-18T03:12:34;-0.70;99.90
2012;DHT22;1009;51.436;6.972;2022-12-18T03:15:04;-0.80;99.90
2012;DHT22;1009;51.436;6.972;2022-12-18T03:17:35;-0.90;99.90
2012;DHT22;1009;51.436;6.972;2022-12-18T03:20:05;-0.80;99.90
2012;DHT22;1009;51.436;6.972;2022-12-18T03:22:35;-0.80;99.90
2012;DHT22;1009;51.436;6.972;2022-12-18T03:25:06;-0.80;99.90
2012;DHT22;1009;51.436;6.972;2022-12-18T03:27:37;-0.80;99.90
2012;DHT22;1009;51.436;6.972;2022-12-18T03:30:07;-0.80;99.90
2012;DHT22;1009;51.436;6.972;2022-12-18T03:32:39;-0.90;99.90
2012;DHT22;1009;51.436;6.972;2022-12-18T03:35:10;-0.90;99.90
2012;DHT22;1009;51.436;6.972;2022-12-18T03:37:37;-0.90;99.90
2012;DHT22;1009;51.436;6.972;2022-12-18T03:40:05;-1.00;99.90
2012;DHT22;1009;51.436;6.972;2022-12-18T03:42:39;-1.20;99.90
2012;DHT22;1009;51.436;6.972;2022-12-18T03:45:11;-1.30;99.90
2012;DHT22;1009;51.436;6.972;2022-12-18T03:47:42;-1.30;99.90
2012;DHT22;1009;51.436;6.972;2022-12-18T03:50:16;-1.30;99.90
2012;DHT22;1009;51.436;6.972;2022-12-18T03:52:49;-1.30;99.90
2012;DHT22;1009;51.436;6.972;2022-12-18T03:55:18;-1.40;99.90
2012;DHT22;1009;51.436;6.972;2022-12-18T03:57:48;-1.50;99.90
2012;DHT22;1009;51.436;6.972;2022-12-18T04:00:18;-1.40;99.90
2012;DHT22;1009;51.436;6.972;2022-12-18T04:02:48;-1.50;99.90
2012;DHT22;1009;51.436;6.972;2022-12-18T04:05:17;-1.50;99.90
2012;DHT22;1009;51.436;6.972;2022-12-18T04:07:47;-1.60;99.90
2012;DHT22;1009;51.436;6.972;2022-12-18T04:10:15;-1.70;99.90
2012;DHT22;1009;51.436;6.972;2022-12-18T04:12:42;-1.70;99.90
2012;DHT22;1009;51.436;6.972;2022-12-18T04:15:11;-1.80;99.90
2012;DHT22;1009;51.436;6.972;2022-12-18T04:17:38;-1.80;99.90
2012;DHT22;1009;51.436;6.972;2022-12-18T04:20:10;-1.90;99.90
2012;DHT22;1009;51.436;6.972;2022-12-18T04:22:36;-2.00;99.90
2012;DHT22;1009;51.436;6.972;2022-12-18T04:25:04;-2.00;99.90
2012;DHT22;1009;51.436;6.972;2022-12-18T04:27:30;-2.00;99.90
2012;DHT22;1009;51.436;6.972;2022-12-18T04:29:57;-2.00;99.90
2012;DHT22;1009;51.436;6.972;2022-12-18T04:32:25;-2.00;99.90
2012;DHT22;1009;51.436;6.972;2022-12-18T04:34:52;-2.10;99.90
2012;DHT22;1009;51.436;6.972;2022-12-18T04:37:19;-2.20;99.90
2012;DHT22;1009;51.436;6.972;2022-12-18T04:39:46;-2.20;99.90
2012;DHT22;1009;51.436;6.972;2022-12-18T04:42:13;-2.20;99.90
2012;DHT22;1009;51.436;6.972;2022-12-18T04:44:40;-2.30;99.90
2012;DHT22;1009;51.436;6.972;2022-12-18T04:47:06;-2.30;99.90
2012;DHT22;1009;51.436;6.972;2022-12-18T04:49:35;-2.30;99.90
2012;DHT22;1009;51.436;6.972;2022-12-18T04:52:02;-2.50;99.90
2012;DHT22;1009;51.436;6.972;2022-12-18T04:54:28;-2.50;99.90
2012;DHT22;1009;51.436;6.972;2022-12-18T04:56:55;-2.60;99.90
2012;DHT22;1009;51.436;6.972;2022-12-18T04:59:22;-2.60;99.90
2012;DHT22;1009;51.436;6.972;2022-12-18T05:01:49;-2.70;99.90
2012;DHT22;1009;51.436;6.972;2022-12-18T05:04:15;-2.70;99.90
2012;DHT22;1009;51.436;6.972;2022-12-18T05:06:43;-2.70;99.90
2012;DHT22;1009;51.436;6.972;2022-12-18T05:09:10;-2.70;99.90
2012;DHT22;1009;51.436;6.972;2022-12-18T05:11:37;-2.80;99.90
2012;DHT22;1009;51.436;6.972;2022-12-18T05:14:04;-2.90;99.90
2012;DHT22;1009;51.436;6.972;2022-12-18T05:16:30;-3.00;99.90
2012;DHT22;1009;51.436;6.972;2022-12-18T05:18:57;-2.90;99.90
2012;DHT22;1009;51.436;6.972;2022-12-18T05:21:24;-2.80;99.90
2012;DHT22;1009;51.436;6.972;2022-12-18T05:23:52;-2.60;99.90
2012;DHT22;1009;51.436;6.972;2022-12-18T05:26:19;-2.40;99.90
2012;DHT22;1009;51.436;6.972;2022-12-18T05:28:46;-2.30;99.90
2012;DHT22;1009;51.436;6.972;2022-12-18T05:31:13;-2.20;99.90
2012;DHT22;1009;51.436;6.972;2022-12-18T05:33:40;-2.00;99.90
2012;DHT22;1009;51.436;6.972;2022-12-18T05:36:08;-1.90;99.90
2012;DHT22;1009;51.436;6.972;2022-12-18T05:38:38;-1.90;99.90
2012;DHT22;1009;51.436;6.972;2022-12-18T05:41:06;-1.90;99.90
2012;DHT22;1009;51.436;6.972;2022-12-18T05:43:34;-1.90;99.90
2012;DHT22;1009;51.436;6.972;2022-12-18T05:46:04;-1.90;99.90
2012;DHT22;1009;51.436;6.972;2022-12-18T05:48:32;-2.00;99.90
2012;DHT22;1009;51.436;6.972;2022-12-18T05:51:04;-2.30;99.90
2012;DHT22;1009;51.436;6.972;2022-12-18T05:53:32;-2.40;99.90
2012;DHT22;1009;51.436;6.972;2022-12-18T05:56:00;-2.50;99.90
2012;DHT22;1009;51.436;6.972;2022-12-18T05:58:30;-2.60;99.90
2012;DHT22;1009;51.436;6.972;2022-12-18T06:00:57;-2.70;99.90
2012;DHT22;1009;51.436;6.972;2022-12-18T06:03:24;-2.70;99.90
2012;DHT22;1009;51.436;6.972;2022-12-18T06:05:50;-2.70;99.90
2012;DHT22;1009;51.436;6.972;2022-12-18T06:08:17;-2.70;99.90
2012;DHT22;1009;51.436;6.972;2022-12-18T06:10:50;-2.60;99.90
2012;DHT22;1009;51.436;6.972;2022-12-18T06:13:17;-2.70;99.90
2012;DHT22;1009;51.436;6.972;2022-12-18T06:15:45;-2.70;99.90
2012;DHT22;1009;51.436;6.972;2022-12-18T06:18:12;-2.80;99.90
2012;DHT22;1009;51.436;6.972;2022-12-18T06:20:39;-3.00;99.90
2012;DHT22;1009;51.436;6.972;2022-12-18T06:23:07;-3.10;99.90
2012;DHT22;1009;51.436;6.972;2022-12-18T06:25:36;-3.20;99.90
2012;DHT22;1009;51.436;6.972;2022-12-18T06:28:03;-3.30;99.90
2012;DHT22;1009;51.436;6.972;2022-12-18T06:30:30;-3.40;99.90
2012;DHT22;1009;51.436;6.972;2022-12-18T06:32:58;-3.40;99.90
2012;DHT22;1009;51.436;6.972;2022-12-18T06:35:24;-3.30;99.90
2012;DHT22;1009;51.436;6.972;2022-12-18T06:37:51;-3.40;99.90
2012;DHT22;1009;51.436;6.972;2022-12-18T06:40:18;-3.40;99.90
2012;DHT22;1009;51.436;6.972;2022-12-18T06:42:44;-3.40;99.90
2012;DHT22;1009;51.436;6.972;2022-12-18T06:45:11;-3.50;99.90
2012;DHT22;1009;51.436;6.972;2022-12-18T06:47:38;-3.50;99.90
2012;DHT22;1009;51.436;6.972;2022-12-18T06:50:07;-3.50;99.90
2012;DHT22;1009;51.436;6.972;2022-12-18T06:52:33;-3.50;99.90
2012;DHT22;1009;51.436;6.972;2022-12-18T06:55:00;-3.40;99.90
2012;DHT22;1009;51.436;6.972;2022-12-18T06:57:27;-3.40;99.90
2012;DHT22;1009;51.436;6.972;2022-12-18T06:59:54;-3.30;99.90
2012;DHT22;1009;51.436;6.972;2022-12-18T07:02:21;-3.30;99.90
2012;DHT22;1009;51.436;6.972;2022-12-18T07:04:48;-3.40;99.90
2012;DHT22;1009;51.436;6.972;2022-12-18T07:07:16;-3.50;99.90
2012;DHT22;1009;51.436;6.972;2022-12-18T07:09:42;-3.50;99.90
2012;DHT22;1009;51.436;6.972;2022-12-18T07:12:09;-3.50;99.90
2012;DHT22;1009;51.436;6.972;2022-12-18T07:14:36;-3.50;99.90
2012;DHT22;1009;51.436;6.972;2022-12-18T07:17:02;-3.20;99.90
2012;DHT22;1009;51.436;6.972;2022-12-18T07:19:29;-2.90;99.90
2012;DHT22;1009;51.436;6.972;2022-12-18T07:21:56;-2.50;99.90
2012;DHT22;1009;51.436;6.972;2022-12-18T07:24:24;-2.30;99.90
2012;DHT22;1009;51.436;6.972;2022-12-18T07:26:51;-1.90;99.90
2012;DHT22;1009;51.436;6.972;2022-12-18T07:29:17;-1.60;99.90
2012;DHT22;1009;51.436;6.972;2022-12-18T07:31:44;-1.50;99.90
2012;DHT22;1009;51.436;6.972;2022-12-18T07:34:11;-1.30;99.90
2012;DHT22;1009;51.436;6.972;2022-12-18T07:36:38;-1.10;99.90
2012;DHT22;1009;51.436;6.972;2022-12-18T07:39:05;-1.00;99.90
2012;DHT22;1009;51.436;6.972;2022-12-18T07:41:33;-1.00;99.90
2012;DHT22;1009;51.436;6.972;2022-12-18T07:44:00;-0.80;99.90
2012;DHT22;1009;51.436;6.972;2022-12-18T07:46:26;-0.80;99.90
2012;DHT22;1009;51.436;6.972;2022-12-18T07:48:53;-0.70;99.90
2012;DHT22;1009;51.436;6.972;2022-12-18T07:51:20;-0.70;99.90
2012;DHT22;1009;51.436;6.972;2022-12-18T07:53:47;-0.70;99.90
2012;DHT22;1009;51.436;6.972;2022-12-18T07:56:14;-0.60;99.90
2012;DHT22;1009;51.436;6.972;2022-12-18T07:58:42;-0.60;99.90
2012;DHT22;1009;51.436;6.972;2022-12-18T08:01:11;-0.60;99.90
2012;DHT22;1009;51.436;6.972;2022-12-18T08:03:39;-0.70;99.90
2012;DHT22;1009;51.436;6.972;2022-12-18T08:06:07;-0.80;99.90
2012;DHT22;1009;51.436;6.972;2022-12-18T08:08:35;-1.00;99.90
2012;DHT22;1009;51.436;6.972;2022-12-18T08:11:02;-1.10;99.90
2012;DHT22;1009;51.436;6.972;2022-12-18T08:13:28;-1.20;99.90
2012;DHT22;1009;51.436;6.972;2022-12-18T08:15:57;-1.00;99.90
2012;DHT22;1009;51.436;6.972;2022-12-18T08:18:24;-0.90;99.90
2012;DHT22;1009;51.436;6.972;2022-12-18T08:20:52;-0.80;99.90
2012;DHT22;1009;51.436;6.972;2022-12-18T08:23:18;-0.50;99.90
2012;DHT22;1009;51.436;6.972;2022-12-18T08:25:46;-0.40;99.90
2012;DHT22;1009;51.436;6.972;2022-12-18T08:28:27;-0.20;99.90
2012;DHT22;1009;51.436;6.972;2022-12-18T08:30:53;0.00;99.90
2012;DHT22;1009;51.436;6.972;2022-12-18T08:33:22;0.20;99.90
2012;DHT22;1009;51.436;6.972;2022-12-18T08:35:49;0.30;99.90
2012;DHT22;1009;51.436;6.972;2022-12-18T08:38:16;0.50;99.90
2012;DHT22;1009;51.436;6.972;2022-12-18T08:40:42;0.60;99.90
2012;DHT22;1009;51.436;6.972;2022-12-18T08:43:09;0.60;99.90
2012;DHT22;1009;51.436;6.972;2022-12-18T08:45:54;0.70;99.90
2012;DHT22;1009;51.436;6.972;2022-12-18T08:48:22;0.90;99.90
2012;DHT22;1009;51.436;6.972;2022-12-18T08:50:54;0.90;99.90
2012;DHT22;1009;51.436;6.972;2022-12-18T08:53:21;1.00;99.90
2012;DHT22;1009;51.436;6.972;2022-12-18T08:55:47;1.00;99.90
2012;DHT22;1009;51.436;6.972;2022-12-18T08:58:14;1.00;99.90
2012;DHT22;1009;51.436;6.972;2022-12-18T09:00:41;1.10;99.90
2012;DHT22;1009;51.436;6.972;2022-12-18T09:03:11;1.20;99.90
2012;DHT22;1009;51.436;6.972;2022-12-18T09:05:39;1.30;99.90
2012;DHT22;1009;51.436;6.972;2022-12-18T09:08:06;1.30;99.90
2012;DHT22;1009;51.436;6.972;2022-12-18T09:10:33;1.40;99.90
2012;DHT22;1009;51.436;6.972;2022-12-18T09:13:00;1.50;99.90
2012;DHT22;1009;51.436;6.972;2022-12-18T09:15:26;1.60;99.90
2012;DHT22;1009;51.436;6.972;2022-12-18T09:17:53;1.60;99.90
2012;DHT22;1009;51.436;6.972;2022-12-18T09:20:20;1.60;99.90
2012;DHT22;1009;51.436;6.972;2022-12-18T09:22:48;1.70;99.90
2012;DHT22;1009;51.436;6.972;2022-12-18T09:25:14;1.70;99.90
2012;DHT22;1009;51.436;6.972;2022-12-18T09:27:41;1.70;99.90
2012;DHT22;1009;51.436;6.972;2022-12-18T09:30:09;1.80;99.90
2012;DHT22;1009;51.436;6.972;2022-12-18T09:32:36;1.90;99.90
2012;DHT22;1009;51.436;6.972;2022-12-18T09:35:03;1.90;99.90
2012;DHT22;1009;51.436;6.972;2022-12-18T09:37:29;2.00;99.90
2012;DHT22;1009;51.436;6.972;2022-12-18T09:39:57;2.10;99.50
2012;DHT22;1009;51.436;6.972;2022-12-18T09:42:24;2.20;99.20
2012;DHT22;1009;51.436;6.972;2022-12-18T09:44:53;2.30;99.00
2012;DHT22;1009;51.436;6.972;2022-12-18T09:47:23;2.40;98.40
2012;DHT22;1009;51.436;6.972;2022-12-18T09:49:53;2.50;99.10
2012;DHT22;1009;51.436;6.972;2022-12-18T09:52:26;2.60;96.50
2012;DHT22;1009;51.436;6.972;2022-12-18T09:54:58;2.60;96.50
2012;DHT22;1009;51.436;6.972;2022-12-18T09:57:28;2.70;95.20
2012;DHT22;1009;51.436;6.972;2022-12-18T09:59:59;2.80;94.20
2012;DHT22;1009;51.436;6.972;2022-12-18T10:02:30;2.80;93.60
2012;DHT22;1009;51.436;6.972;2022-12-18T10:05:04;2.90;93.40
2012;DHT22;1009;51.436;6.972;2022-12-18T10:07:40;2.90;92.50
2012;DHT22;1009;51.436;6.972;2022-12-18T10:10:18;2.90;92.90
2012;DHT22;1009;51.436;6.972;2022-12-18T10:12:50;3.00;91.80
2012;DHT22;1009;51.436;6.972;2022-12-18T10:15:26;3.10;92.20
2012;DHT22;1009;51.436;6.972;2022-12-18T10:17:58;3.20;92.20
2012;DHT22;1009;51.436;6.972;2022-12-18T10:20:33;3.30;91.90
2012;DHT22;1009;51.436;6.972;2022-12-18T10:23:06;3.30;91.20
2012;DHT22;1009;51.436;6.972;2022-12-18T10:25:50;3.30;90.20
2012;DHT22;1009;51.436;6.972;2022-12-18T10:28:20;3.40;90.30
2012;DHT22;1009;51.436;6.972;2022-12-18T10:30:47;3.40;90.50
2012;DHT22;1009;51.436;6.972;2022-12-18T10:33:17;3.50;90.10
2012;DHT22;1009;51.436;6.972;2022-12-18T10:35:44;3.40;89.70
2012;DHT22;1009;51.436;6.972;2022-12-18T10:38:24;3.50;88.80
2012;DHT22;1009;51.436;6.972;2022-12-18T10:40:55;3.50;87.00
2012;DHT22;1009;51.436;6.972;2022-12-18T10:43:24;3.60;88.50
2012;DHT22;1009;51.436;6.972;2022-12-18T10:46:11;3.70;87.20
2012;DHT22;1009;51.436;6.972;2022-12-18T10:48:47;3.80;85.20
2012;DHT22;1009;51.436;6.972;2022-12-18T10:51:20;3.90;86.20
2012;DHT22;1009;51.436;6.972;2022-12-18T10:53:54;3.90;83.30
2012;DHT22;1009;51.436;6.972;2022-12-18T10:56:24;4.00;84.30
2012;DHT22;1009;51.436;6.972;2022-12-18T10:58:56;4.00;84.10
2012;DHT22;1009;51.436;6.972;2022-12-18T11:01:23;4.00;84.80
2012;DHT22;1009;51.436;6.972;2022-12-18T11:04:00;4.10;82.10
2012;DHT22;1009;51.436;6.972;2022-12-18T11:06:28;4.10;83.30
2012;DHT22;1009;51.436;6.972;2022-12-18T11:09:00;4.20;81.70
2012;DHT22;1009;51.436;6.972;2022-12-18T11:11:28;4.20;79.50
2012;DHT22;1009;51.436;6.972;2022-12-18T11:14:00;4.20;80.10
2012;DHT22;1009;51.436;6.972;2022-12-18T11:16:28;4.30;80.00
2012;DHT22;1009;51.436;6.972;2022-12-18T11:19:12;4.30;80.40
2012;DHT22;1009;51.436;6.972;2022-12-18T11:21:41;4.30;78.40
2012;DHT22;1009;51.436;6.972;2022-12-18T11:24:18;4.30;78.20
2012;DHT22;1009;51.436;6.972;2022-12-18T11:26:47;4.40;79.50
2012;DHT22;1009;51.436;6.972;2022-12-18T11:29:18;4.30;77.00
2012;DHT22;1009;51.436;6.972;2022-12-18T11:31:49;4.30;78.80
2012;DHT22;1009;51.436;6.972;2022-12-18T11:34:20;4.40;79.00
2012;DHT22;1009;51.436;6.972;2022-12-18T11:36:49;4.40;77.30
2012;DHT22;1009;51.436;6.972;2022-12-18T11:39:18;4.50;77.90
2012;DHT22;1009;51.436;6.972;2022-12-18T11:41:52;4.50;79.80
2012;DHT22;1009;51.436;6.972;2022-12-18T11:44:40;4.60;78.10
2012;DHT22;1009;51.436;6.972;2022-12-18T11:47:15;4.60;79.30
2012;DHT22;1009;51.436;6.972;2022-12-18T11:49:43;4.50;81.70
2012;DHT22;1009;51.436;6.972;2022-12-18T11:52:18;4.50;84.40
2012;DHT22;1009;51.436;6.972;2022-12-18T11:54:45;4.40;83.10
2012;DHT22;1009;51.436;6.972;2022-12-18T11:57:24;4.40;84.90
2012;DHT22;1009;51.436;6.972;2022-12-18T11:59:59;4.40;85.90
2012;DHT22;1009;51.436;6.972;2022-12-18T12:02:40;4.40;87.40
2012;DHT22;1009;51.436;6.972;2022-12-18T12:05:25;4.40;88.80
2012;DHT22;1009;51.436;6.972;2022-12-18T12:07:58;4.30;89.80
2012;DHT22;1009;51.436;6.972;2022-12-18T12:10:36;4.40;90.60
2012;DHT22;1009;51.436;6.972;2022-12-18T12:13:23;4.30;90.90
2012;DHT22;1009;51.436;6.972;2022-12-18T12:16:00;4.40;90.60
2012;DHT22;1009;51.436;6.972;2022-12-18T12:18:36;4.40;90.60
2012;DHT22;1009;51.436;6.972;2022-12-18T12:21:18;4.40;89.00
2012;DHT22;1009;51.436;6.972;2022-12-18T12:23:55;4.30;86.40
2012;DHT22;1009;51.436;6.972;2022-12-18T12:26:33;4.20;86.10
2012;DHT22;1009;51.436;6.972;2022-12-18T12:29:10;4.10;86.90
2012;DHT22;1009;51.436;6.972;2022-12-18T12:31:54;4.10;87.70
2012;DHT22;1009;51.436;6.972;2022-12-18T12:34:28;4.00;86.60
2012;DHT22;1009;51.436;6.972;2022-12-18T12:37:07;3.90;86.60
2012;DHT22;1009;51.436;6.972;2022-12-18T12:39:38;3.90;87.30
2012;DHT22;1009;51.436;6.972;2022-12-18T12:42:15;3.80;85.80
2012;DHT22;1009;51.436;6.972;2022-12-18T12:45:05;3.70;86.70
2012;DHT22;1009;51.436;6.972;2022-12-18T12:47:34;3.70;86.60
2012;DHT22;1009;51.436;6.972;2022-12-18T12:50:04;3.70;85.00
2012;DHT22;1009;51.436;6.972;2022-12-18T12:52:35;3.60;83.40
2012;DHT22;1009;51.436;6.972;2022-12-18T12:55:12;3.60;85.60
2012;DHT22;1009;51.436;6.972;2022-12-18T12:57:43;3.50;86.10
2012;DHT22;1009;51.436;6.972;2022-12-18T13:00:15;3.50;87.20
2012;DHT22;1009;51.436;6.972;2022-12-18T13:02:47;3.50;86.00
2012;DHT22;1009;51.436;6.972;2022-12-18T13:05:21;3.50;86.30
2012;DHT22;1009;51.436;6.972;2022-12-18T13:07:52;3.50;86.60
2012;DHT22;1009;51.436;6.972;2022-12-18T13:10:26;3.50;87.40
2012;DHT22;1009;51.436;6.972;2022-12-18T13:12:59;3.50;87.70
2012;DHT22;1009;51.436;6.972;2022-12-18T13:15:37;3.40;89.50
2012;DHT22;1009;51.436;6.972;2022-12-18T13:18:13;3.40;89.50
2012;DHT22;1009;51.436;6.972;2022-12-18T13:20:41;3.40;90.60
2012;DHT22;1009;51.436;6.972;2022-12-18T13:23:41;3.40;91.00
2012;DHT22;1009;51.436;6.972;2022-12-18T13:26:38;3.40;91.30
2012;DHT22;1009;51.436;6.972;2022-12-18T13:29:04;3.30;91.40
2012;DHT22;1009;51.436;6.972;2022-12-18T13:34:36;3.20;92.70
2012;DHT22;1009;51.436;6.972;2022-12-18T13:37:40;3.30;93.20
2012;DHT22;1009;51.436;6.972;2022-12-18T13:43:34;3.20;94.70
2012;DHT22;1009;51.436;6.972;2022-12-18T13:46:06;3.30;94.10
2012;DHT22;1009;51.436;6.972;2022-12-18T13:48:50;3.30;94.80
2012;DHT22;1009;51.436;6.972;2022-12-18T13:51:19;3.30;94.50
2012;DHT22;1009;51.436;6.972;2022-12-18T13:53:49;3.30;94.50
2012;DHT22;1009;51.436;6.972;2022-12-18T13:56:17;3.30;94.90
2012;DHT22;1009;51.436;6.972;2022-12-18T13:58:44;3.20;94.90
2012;DHT22;1009;51.436;6.972;2022-12-18T14:01:22;3.20;94.70
2012;DHT22;1009;51.436;6.972;2022-12-18T14:03:48;3.20;94.90
2012;DHT22;1009;51.436;6.972;2022-12-18T14:06:16;3.20;95.40
2012;DHT22;1009;51.436;6.972;2022-12-18T14:08:45;3.20;95.00
2012;DHT22;1009;51.436;6.972;2022-12-18T14:11:20;3.20;94.60
2012;DHT22;1009;51.436;6.972;2022-12-18T14:13:48;3.10;95.60
2012;DHT22;1009;51.436;6.972;2022-12-18T14:16:16;3.10;95.70
2012;DHT22;1009;51.436;6.972;2022-12-18T14:18:45;3.10;94.70
2012;DHT22;1009;51.436;6.972;2022-12-18T14:21:22;3.10;95.30
2012;DHT22;1009;51.436;6.972;2022-12-18T14:24:03;3.20;95.60
2012;DHT22;1009;51.436;6.972;2022-12-18T14:26:31;3.10;94.50
2012;DHT22;1009;51.436;6.972;2022-12-18T14:29:00;3.10;95.50
2012;DHT22;1009;51.436;6.972;2022-12-18T14:31:28;3.10;96.10
2012;DHT22;1009;51.436;6.972;2022-12-18T14:33:55;3.10;95.50
2012;DHT22;1009;51.436;6.972;2022-12-18T14:36:24;3.20;95.40
2012;DHT22;1009;51.436;6.972;2022-12-18T14:38:54;3.20;95.60
2012;DHT22;1009;51.436;6.972;2022-12-18T14:41:22;3.20;95.20
2012;DHT22;1009;51.436;6.972;2022-12-18T14:43:50;3.20;95.10
2012;DHT22;1009;51.436;6.972;2022-12-18T14:46:36;3.20;95.00
2012;DHT22;1009;51.436;6.972;2022-12-18T14:49:05;3.30;95.30
2012;DHT22;1009;51.436;6.972;2022-12-18T14:51:47;3.20;94.50
2012;DHT22;1009;51.436;6.972;2022-12-18T14:54:17;3.20;95.10
2012;DHT22;1009;51.436;6.972;2022-12-18T14:56:46;3.10;94.20
2012;DHT22;1009;51.436;6.972;2022-12-18T14:59:15;3.10;94.10
2012;DHT22;1009;51.436;6.972;2022-12-18T15:01:46;3.10;94.80
2012;DHT22;1009;51.436;6.972;2022-12-18T15:04:25;3.10;95.20
2012;DHT22;1009;51.436;6.972;2022-12-18T15:07:03;3.10;95.60
2012;DHT22;1009;51.436;6.972;2022-12-18T15:09:32;3.00;94.90
2012;DHT22;1009;51.436;6.972;2022-12-18T15:12:01;3.10;94.40
2012;DHT22;1009;51.436;6.972;2022-12-18T15:14:34;3.10;95.00
2012;DHT22;1009;51.436;6.972;2022-12-18T15:17:05;3.10;95.10
2012;DHT22;1009;51.436;6.972;2022-12-18T15:19:38;3.10;94.70
2012;DHT22;1009;51.436;6.972;2022-12-18T15:22:18;3.00;94.40
2012;DHT22;1009;51.436;6.972;2022-12-18T15:24:48;3.10;95.70
2012;DHT22;1009;51.436;6.972;2022-12-18T15:27:26;3.00;96.20
2012;DHT22;1009;51.436;6.972;2022-12-18T15:30:19;3.10;96.30
2012;DHT22;1009;51.436;6.972;2022-12-18T15:32:47;3.00;97.20
2012;DHT22;1009;51.436;6.972;2022-12-18T15:35:18;3.00;97.30
2012;DHT22;1009;51.436;6.972;2022-12-18T15:37:45;2.90;97.80
2012;DHT22;1009;51.436;6.972;2022-12-18T15:40:14;2.90;98.80
2012;DHT22;1009;51.436;6.972;2022-12-18T15:42:42;3.00;99.30
2012;DHT22;1009;51.436;6.972;2022-12-18T15:45:26;3.00;99.60
2012;DHT22;1009;51.436;6.972;2022-12-18T15:47:55;2.90;99.90
2012;DHT22;1009;51.436;6.972;2022-12-18T15:50:23;2.90;99.90
2012;DHT22;1009;51.436;6.972;2022-12-18T15:52:52;2.90;99.90
2012;DHT22;1009;51.436;6.972;2022-12-18T15:55:23;2.90;99.90
2012;DHT22;1009;51.436;6.972;2022-12-18T15:58:08;2.90;99.90
2012;DHT22;1009;51.436;6.972;2022-12-18T16:00:37;2.80;99.90
2012;DHT22;1009;51.436;6.972;2022-12-18T16:03:04;2.70;99.90
2012;DHT22;1009;51.436;6.972;2022-12-18T16:05:31;2.80;99.90
2012;DHT22;1009;51.436;6.972;2022-12-18T16:07:58;2.80;99.90
2012;DHT22;1009;51.436;6.972;2022-12-18T16:10:26;2.70;99.90
2012;DHT22;1009;51.436;6.972;2022-12-18T16:12:53;2.60;99.90
2012;DHT22;1009;51.436;6.972;2022-12-18T16:15:20;2.50;99.90
2012;DHT22;1009;51.436;6.972;2022-12-18T16:17:47;2.40;99.90
2012;DHT22;1009;51.436;6.972;2022-12-18T16:20:15;2.40;99.90
2012;DHT22;1009;51.436;6.972;2022-12-18T16:22:43;2.30;99.90
2012;DHT22;1009;51.436;6.972;2022-12-18T16:25:17;2.30;99.90
2012;DHT22;1009;51.436;6.972;2022-12-18T16:27:45;2.30;99.90
2012;DHT22;1009;51.436;6.972;2022-12-18T16:30:14;2.20;99.90
2012;DHT22;1009;51.436;6.972;2022-12-18T16:32:40;2.20;99.90
2012;DHT22;1009;51.436;6.972;2022-12-18T16:35:10;2.10;99.90